sensor_id;sensor_type;location;lat;lon;timestamp;temperature;humidity
2543;DHT22;1116;51.502;7.414;2023-08-31T00:02:03;13.90;99.90
2543;DHT22;1116;51.502;7.414;2023-08-31T00:04:33;14.00;99.90
2543;DHT22;1116;51.502;7.414;2023-08-31T00:07:03;14.00;99.90
2543;DHT22;1116;51.502;7.414;2023-08-31T00:09:33;14.00;99.90
2543;DHT22;1116;51.502;7.414;2023-08-31T00:12:04;13.90;99.90
2543;DHT22;1116;51.502;7.414;2023-08-31T00:14:37;14.00;99.90
2543;DHT22;1116;51.502;7.414;2023-08-31T00:17:07;13.90;99.90
2543;DHT22;1116;51.502;7.414;2023-08-31T00:19:36;13.90;99.90
2543;DHT22;1116;51.502;7.414;2023-08-31T00:22:09;13.90;99.90
2543;DHT22;1116;51.502;7.414;2023-08-31T00:24:39;13.90;99.90
2543;DHT22;1116;51.502;7.414;2023-08-31T00:27:09;13.90;99.90
2543;DHT22;1116;51.502;7.414;2023-08-31T00:29:44;14.00;99.90
2543;DHT22;1116;51.502;7.414;2023-08-31T00:32:16;14.00;99.90
2543;DHT22;1116;51.502;7.414;2023-08-31T00:34:50;14.00;99.90
2543;DHT22;1116;51.502;7.414;2023-08-31T00:37:20;14.00;99.90
2543;DHT22;1116;51.502;7.414;2023-08-31T00:39:50;14.00;99.90
2543;DHT22;1116;51.502;7.414;2023-08-31T00:42:21;14.00;99.90
2543;DHT22;1116;51.502;7.414;2023-08-31T00:44:54;13.90;99.90
2543;DHT22;1116;51.502;7.414;2023-08-31T00:47:24;13.90;99.90
2543;DHT22;1116;51.502;7.414;2023-08-31T00:49:54;13.90;99.90
2543;DHT22;1116;51.502;7.414;2023-08-31T00:52:24;14.00;99.90
2543;DHT22;1116;51.502;7.414;2023-08-31T00:54:54;14.00;99.90
2543;DHT22;1116;51.502;7.414;2023-08-31T00:57:24;14.00;99.90
2543;DHT22;1116;51.502;7.414;2023-08-31T00:59:57;14.00;99.90
2543;DHT22;1116;51.502;7.414;2023-08-31T01:02:36;13.90;99.90
2543;DHT22;1116;51.502;7.414;2023-08-31T01:05:29;13.90;99.90
2543;DHT22;1116;51.502;7.414;2023-08-31T01:08:08;13.90;99.90
2543;DHT22;1116;51.502;7.414;2023-08-31T01:10:49;14.00;99.90
2543;DHT22;1116;51.502;7.414;2023-08-31T01:13:24;13.90;99.90
2543;DHT22;1116;51.502;7.414;2023-08-31T01:16:00;13.90;99.90
2543;DHT22;1116;51.502;7.414;2023-08-31T01:18:33;13.80;99.90
2543;DHT22;1116;51.502;7.414;2023-08-31T01:21:11;13.80;99.90
2543;DHT22;1116;51.502;7.414;2023-08-31T01:23:50;13.70;99.90
2543;DHT22;1116;51.502;7.414;2023-08-31T01:26:22;13.60;99.90
2543;DHT22;1116;51.502;7.414;2023-08-31T01:28:52;13.60;99.90
2543;DHT22;1116;51.502;7.414;2023-08-31T01:31:22;13.60;99.90
2543;DHT22;1116;51.502;7.414;2023-08-31T01:33:52;13.50;99.90
2543;DHT22;1116;51.502;7.414;2023-08-31T01:36:27;13.50;99.90
2543;DHT22;1116;51.502;7.414;2023-08-31T01:39:06;13.50;99.90
2543;DHT22;1116;51.502;7.414;2023-08-31T01:41:43;13.40;99.90
2543;DHT22;1116;51.502;7.414;2023-08-31T01:44:16;13.40;99.90
2543;DHT22;1116;51.502;7.414;2023-08-31T01:46:51;13.40;99.90
2543;DHT22;1116;51.502;7.414;2023-08-31T01:49:21;13.30;99.90
2543;DHT22;1116;51.502;7.414;2023-08-31T01:51:51;13.80;99.90
2543;DHT22;1116;51.502;7.414;2023-08-31T01:54:24;13.30;99.90
2543;DHT22;1116;51.502;7.414;2023-08-31T01:56:53;13.30;99.90
2543;DHT22;1116;51.502;7.414;2023-08-31T01:59:23;13.30;99.90
2543;DHT22;1116;51.502;7.414;2023-08-31T02:01:53;13.20;99.90
2543;DHT22;1116;51.502;7.414;2023-08-31T02:04:23;13.20;99.90
2543;DHT22;1116;51.502;7.414;2023-08-31T02:06:53;13.20;99.90
2543;DHT22;1116;51.502;7.414;2023-08-31T02:09:26;13.20;99.90
2543;DHT22;1116;51.502;7.414;2023-08-31T02:11:55;13.20;99.90
2543;DHT22;1116;51.502;7.414;2023-08-31T02:14:26;13.20;99.90
2543;DHT22;1116;51.502;7.414;2023-08-31T02:16:56;13.20;99.90
2543;DHT22;1116;51.502;7.414;2023-08-31T02:19:26;13.20;99.90
2543;DHT22;1116;51.502;7.414;2023-08-31T02:21:56;13.20;99.90
2543;DHT22;1116;51.502;7.414;2023-08-31T02:24:28;13.10;99.90
2543;DHT22;1116;51.502;7.414;2023-08-31T02:26:58;13.10;99.90
2543;DHT22;1116;51.502;7.414;2023-08-31T02:29:28;13.10;99.90
2543;DHT22;1116;51.502;7.414;2023-08-31T02:31:58;13.10;99.90
2543;DHT22;1116;51.502;7.414;2023-08-31T02:34:27;13.00;99.90
2543;DHT22;1116;51.502;7.414;2023-08-31T02:36:57;13.00;99.90
2543;DHT22;1116;51.502;7.414;2023-08-31T02:39:30;13.00;99.90
2543;DHT22;1116;51.502;7.414;2023-08-31T02:42:00;13.00;99.90
2543;DHT22;1116;51.502;7.414;2023-08-31T02:44:32;13.00;99.90
2543;DHT22;1116;51.502;7.414;2023-08-31T02:47:02;12.90;99.90
2543;DHT22;1116;51.502;7.414;2023-08-31T02:49:32;13.00;99.90
2543;DHT22;1116;51.502;7.414;2023-08-31T02:52:01;12.90;99.90
2543;DHT22;1116;51.502;7.414;2023-08-31T02:54:34;12.40;99.90
2543;DHT22;1116;51.502;7.414;2023-08-31T02:57:04;12.90;99.90
2543;DHT22;1116;51.502;7.414;2023-08-31T02:59:34;12.90;99.90
2543;DHT22;1116;51.502;7.414;2023-08-31T03:02:04;12.80;99.90
2543;DHT22;1116;51.502;7.414;2023-08-31T03:04:34;12.80;99.90
2543;DHT22;1116;51.502;7.414;2023-08-31T03:07:04;12.70;99.90
2543;DHT22;1116;51.502;7.414;2023-08-31T03:09:37;12.80;99.90
2543;DHT22;1116;51.502;7.414;2023-08-31T03:12:07;12.70;99.90
2543;DHT22;1116;51.502;7.414;2023-08-31T03:14:37;13.20;99.90
2543;DHT22;1116;51.502;7.414;2023-08-31T03:17:07;12.70;99.90
2543;DHT22;1116;51.502;7.414;2023-08-31T03:19:37;12.70;99.90
2543;DHT22;1116;51.502;7.414;2023-08-31T03:22:07;12.80;99.90
2543;DHT22;1116;51.502;7.414;2023-08-31T03:24:39;12.70;99.90
2543;DHT22;1116;51.502;7.414;2023-08-31T03:27:09;12.70;99.90
2543;DHT22;1116;51.502;7.414;2023-08-31T03:29:39;12.60;99.90
2543;DHT22;1116;51.502;7.414;2023-08-31T03:32:09;12.70;99.90
2543;DHT22;1116;51.502;7.414;2023-08-31T03:34:39;12.60;99.90
2543;DHT22;1116;51.502;7.414;2023-08-31T03:37:08;12.60;99.90
2543;DHT22;1116;51.502;7.414;2023-08-31T03:39:41;12.60;99.90
2543;DHT22;1116;51.502;7.414;2023-08-31T03:42:11;12.60;99.90
2543;DHT22;1116;51.502;7.414;2023-08-31T03:44:40;12.60;99.90
2543;DHT22;1116;51.502;7.414;2023-08-31T03:47:10;12.50;99.90
2543;DHT22;1116;51.502;7.414;2023-08-31T03:49:40;12.60;99.90
2543;DHT22;1116;51.502;7.414;2023-08-31T03:52:10;12.60;99.90
2543;DHT22;1116;51.502;7.414;2023-08-31T03:54:43;12.60;99.90
2543;DHT22;1116;51.502;7.414;2023-08-31T03:57:12;12.70;99.90
2543;DHT22;1116;51.502;7.414;2023-08-31T03:59:42;12.60;99.90
2543;DHT22;1116;51.502;7.414;2023-08-31T04:02:12;12.60;99.90
2543;DHT22;1116;51.502;7.414;2023-08-31T04:04:50;12.60;99.90
2543;DHT22;1116;51.502;7.414;2023-08-31T04:07:19;12.60;99.90
2543;DHT22;1116;51.502;7.414;2023-08-31T04:09:52;12.60;99.90
2543;DHT22;1116;51.502;7.414;2023-08-31T04:12:22;12.80;99.90
2543;DHT22;1116;51.502;7.414;2023-08-31T04:14:52;12.50;99.90
2543;DHT22;1116;51.502;7.414;2023-08-31T04:17:22;12.60;99.90
2543;DHT22;1116;51.502;7.414;2023-08-31T04:19:54;12.60;99.90
2543;DHT22;1116;51.502;7.414;2023-08-31T04:22:24;12.60;99.90
2543;DHT22;1116;51.502;7.414;2023-08-31T04:24:56;12.60;99.90
2543;DHT22;1116;51.502;7.414;2023-08-31T04:27:26;12.60;99.90
2543;DHT22;1116;51.502;7.414;2023-08-31T04:29:59;12.60;99.90
2543;DHT22;1116;51.502;7.414;2023-08-31T04:32:29;12.60;99.90
2543;DHT22;1116;51.502;7.414;2023-08-31T04:34:59;12.70;99.90
2543;DHT22;1116;51.502;7.414;2023-08-31T04:37:31;12.70;99.90
2543;DHT22;1116;51.502;7.414;2023-08-31T04:40:05;12.70;99.90
2543;DHT22;1116;51.502;7.414;2023-08-31T04:42:35;12.60;99.90
2543;DHT22;1116;51.502;7.414;2023-08-31T04:45:07;12.60;99.90
2543;DHT22;1116;51.502;7.414;2023-08-31T04:47:37;12.60;99.90
2543;DHT22;1116;51.502;7.414;2023-08-31T04:50:08;12.60;99.90
2543;DHT22;1116;51.502;7.414;2023-08-31T04:52:38;12.60;99.90
2543;DHT22;1116;51.502;7.414;2023-08-31T04:55:13;12.70;99.90
2543;DHT22;1116;51.502;7.414;2023-08-31T04:57:43;12.70;99.90
2543;DHT22;1116;51.502;7.414;2023-08-31T05:00:14;12.60;99.90
2543;DHT22;1116;51.502;7.414;2023-08-31T05:02:44;12.70;99.90
2543;DHT22;1116;51.502;7.414;2023-08-31T05:05:14;12.70;99.90
2543;DHT22;1116;51.502;7.414;2023-08-31T05:07:54;12.80;99.90
2543;DHT22;1116;51.502;7.414;2023-08-31T05:10:32;12.80;99.90
2543;DHT22;1116;51.502;7.414;2023-08-31T05:13:02;12.90;99.90
2543;DHT22;1116;51.502;7.414;2023-08-31T05:15:32;12.80;99.90
2543;DHT22;1116;51.502;7.414;2023-08-31T05:18:02;12.90;99.90
2543;DHT22;1116;51.502;7.414;2023-08-31T05:20:35;12.80;99.90
2543;DHT22;1116;51.502;7.414;2023-08-31T05:23:05;12.80;99.90
2543;DHT22;1116;51.502;7.414;2023-08-31T05:25:41;13.00;99.90
2543;DHT22;1116;51.502;7.414;2023-08-31T05:28:11;12.80;99.90
2543;DHT22;1116;51.502;7.414;2023-08-31T05:30:51;12.80;99.90
2543;DHT22;1116;51.502;7.414;2023-08-31T05:33:21;12.80;99.90
2543;DHT22;1116;51.502;7.414;2023-08-31T05:35:52;12.80;99.90
2543;DHT22;1116;51.502;7.414;2023-08-31T05:38:22;12.80;99.90
2543;DHT22;1116;51.502;7.414;2023-08-31T05:41:03;12.90;99.90
2543;DHT22;1116;51.502;7.414;2023-08-31T05:43:33;12.90;99.90
2543;DHT22;1116;51.502;7.414;2023-08-31T05:46:03;13.00;99.90
2543;DHT22;1116;51.502;7.414;2023-08-31T05:48:33;13.00;99.90
2543;DHT22;1116;51.502;7.414;2023-08-31T05:51:04;13.00;99.90
2543;DHT22;1116;51.502;7.414;2023-08-31T05:53:34;13.00;99.90
2543;DHT22;1116;51.502;7.414;2023-08-31T05:56:07;13.10;99.90
2543;DHT22;1116;51.502;7.414;2023-08-31T05:58:37;13.20;99.90
2543;DHT22;1116;51.502;7.414;2023-08-31T06:01:07;13.30;99.90
2543;DHT22;1116;51.502;7.414;2023-08-31T06:03:37;13.70;99.90
2543;DHT22;1116;51.502;7.414;2023-08-31T06:06:07;15.40;99.90
2543;DHT22;1116;51.502;7.414;2023-08-31T06:08:37;14.50;99.90
2543;DHT22;1116;51.502;7.414;2023-08-31T06:11:09;14.90;99.90
2543;DHT22;1116;51.502;7.414;2023-08-31T06:13:40;15.50;99.90
2543;DHT22;1116;51.502;7.414;2023-08-31T06:16:11;16.00;99.90
2543;DHT22;1116;51.502;7.414;2023-08-31T06:18:41;16.50;99.90
2543;DHT22;1116;51.502;7.414;2023-08-31T06:21:11;16.90;84.80
2543;DHT22;1116;51.502;7.414;2023-08-31T06:23:43;17.30;75.10
2543;DHT22;1116;51.502;7.414;2023-08-31T06:26:16;17.40;65.00
2543;DHT22;1116;51.502;7.414;2023-08-31T06:28:45;17.70;57.40
2543;DHT22;1116;51.502;7.414;2023-08-31T06:31:15;18.00;51.30
2543;DHT22;1116;51.502;7.414;2023-08-31T06:33:46;18.30;47.90
2543;DHT22;1116;51.502;7.414;2023-08-31T06:36:16;18.20;41.70
2543;DHT22;1116;51.502;7.414;2023-08-31T06:38:46;17.60;41.00
2543;DHT22;1116;51.502;7.414;2023-08-31T06:41:18;17.10;46.40
2543;DHT22;1116;51.502;7.414;2023-08-31T06:43:48;16.80;49.90
2543;DHT22;1116;51.502;7.414;2023-08-31T06:46:18;16.60;50.40
2543;DHT22;1116;51.502;7.414;2023-08-31T06:48:51;16.20;51.40
2543;DHT22;1116;51.502;7.414;2023-08-31T06:51:21;16.00;58.60
2543;DHT22;1116;51.502;7.414;2023-08-31T06:53:51;16.20;64.40
2543;DHT22;1116;51.502;7.414;2023-08-31T06:56:24;16.10;57.90
2543;DHT22;1116;51.502;7.414;2023-08-31T06:58:54;16.40;58.00
2543;DHT22;1116;51.502;7.414;2023-08-31T07:01:24;16.50;56.20
2543;DHT22;1116;51.502;7.414;2023-08-31T07:03:54;16.90;56.20
2543;DHT22;1116;51.502;7.414;2023-08-31T07:06:24;17.50;46.70
2543;DHT22;1116;51.502;7.414;2023-08-31T07:08:57;17.80;42.10
2543;DHT22;1116;51.502;7.414;2023-08-31T07:11:29;18.10;39.00
2543;DHT22;1116;51.502;7.414;2023-08-31T07:13:59;18.20;37.10
2543;DHT22;1116;51.502;7.414;2023-08-31T07:16:30;18.40;33.90
2543;DHT22;1116;51.502;7.414;2023-08-31T07:19:00;18.30;30.70
2543;DHT22;1116;51.502;7.414;2023-08-31T07:21:30;18.10;30.60
2543;DHT22;1116;51.502;7.414;2023-08-31T07:23:59;18.10;31.40
2543;DHT22;1116;51.502;7.414;2023-08-31T07:26:32;18.20;32.80
2543;DHT22;1116;51.502;7.414;2023-08-31T07:29:02;18.10;31.90
2543;DHT22;1116;51.502;7.414;2023-08-31T07:31:33;18.00;31.50
2543;DHT22;1116;51.502;7.414;2023-08-31T07:34:03;17.90;34.90
2543;DHT22;1116;51.502;7.414;2023-08-31T07:36:34;18.00;33.60
2543;DHT22;1116;51.502;7.414;2023-08-31T07:39:04;17.90;34.20
2543;DHT22;1116;51.502;7.414;2023-08-31T07:41:37;17.90;34.30
2543;DHT22;1116;51.502;7.414;2023-08-31T07:44:07;17.70;38.60
2543;DHT22;1116;51.502;7.414;2023-08-31T07:46:37;17.70;35.60
2543;DHT22;1116;51.502;7.414;2023-08-31T07:49:07;17.70;37.10
2543;DHT22;1116;51.502;7.414;2023-08-31T07:51:37;17.60;33.80
2543;DHT22;1116;51.502;7.414;2023-08-31T07:54:07;17.80;36.70
2543;DHT22;1116;51.502;7.414;2023-08-31T07:56:39;17.60;35.90
2543;DHT22;1116;51.502;7.414;2023-08-31T07:59:10;17.70;38.20
2543;DHT22;1116;51.502;7.414;2023-08-31T08:01:40;17.60;37.10
2543;DHT22;1116;51.502;7.414;2023-08-31T08:04:11;17.50;35.80
2543;DHT22;1116;51.502;7.414;2023-08-31T08:06:41;17.40;38.40
2543;DHT22;1116;51.502;7.414;2023-08-31T08:09:11;17.20;36.70
2543;DHT22;1116;51.502;7.414;2023-08-31T08:11:45;17.10;36.80
2543;DHT22;1116;51.502;7.414;2023-08-31T08:14:15;17.20;40.20
2543;DHT22;1116;51.502;7.414;2023-08-31T08:16:45;17.30;37.20
2543;DHT22;1116;51.502;7.414;2023-08-31T08:19:21;17.40;38.40
2543;DHT22;1116;51.502;7.414;2023-08-31T08:21:52;17.60;41.40
2543;DHT22;1116;51.502;7.414;2023-08-31T08:24:21;17.60;32.40
2543;DHT22;1116;51.502;7.414;2023-08-31T08:26:54;17.70;36.70
2543;DHT22;1116;51.502;7.414;2023-08-31T08:29:24;17.80;31.40
2543;DHT22;1116;51.502;7.414;2023-08-31T08:31:53;17.80;31.80
2543;DHT22;1116;51.502;7.414;2023-08-31T08:34:23;17.80;30.90
2543;DHT22;1116;51.502;7.414;2023-08-31T08:36:55;17.90;33.80
2543;DHT22;1116;51.502;7.414;2023-08-31T08:39:25;18.00;28.60
2543;DHT22;1116;51.502;7.414;2023-08-31T08:41:59;18.10;29.00
2543;DHT22;1116;51.502;7.414;2023-08-31T08:44:32;18.10;30.90
2543;DHT22;1116;51.502;7.414;2023-08-31T08:47:03;18.10;27.00
2543;DHT22;1116;51.502;7.414;2023-08-31T08:49:33;18.30;28.80
2543;DHT22;1116;51.502;7.414;2023-08-31T08:52:04;18.30;27.20
2543;DHT22;1116;51.502;7.414;2023-08-31T08:54:35;18.40;24.80
2543;DHT22;1116;51.502;7.414;2023-08-31T08:57:09;18.50;23.30
2543;DHT22;1116;51.502;7.414;2023-08-31T08:59:38;18.40;22.50
2543;DHT22;1116;51.502;7.414;2023-08-31T09:02:09;18.30;24.00
2543;DHT22;1116;51.502;7.414;2023-08-31T09:04:39;18.50;24.20
2543;DHT22;1116;51.502;7.414;2023-08-31T09:07:09;18.60;28.50
2543;DHT22;1116;51.502;7.414;2023-08-31T09:09:49;18.70;24.30
2543;DHT22;1116;51.502;7.414;2023-08-31T09:12:24;18.80;25.20
2543;DHT22;1116;51.502;7.414;2023-08-31T09:15:00;18.90;21.90
2543;DHT22;1116;51.502;7.414;2023-08-31T09:17:41;18.80;22.30
2543;DHT22;1116;51.502;7.414;2023-08-31T09:20:12;18.80;21.40
2543;DHT22;1116;51.502;7.414;2023-08-31T09:22:43;18.80;22.90
2543;DHT22;1116;51.502;7.414;2023-08-31T09:25:13;18.80;24.30
2543;DHT22;1116;51.502;7.414;2023-08-31T09:27:46;18.80;24.50
2543;DHT22;1116;51.502;7.414;2023-08-31T09:30:16;18.80;24.00
2543;DHT22;1116;51.502;7.414;2023-08-31T09:32:52;18.90;29.20
2543;DHT22;1116;51.502;7.414;2023-08-31T09:35:23;19.00;21.60
2543;DHT22;1116;51.502;7.414;2023-08-31T09:37:57;18.70;18.80
2543;DHT22;1116;51.502;7.414;2023-08-31T09:40:29;18.80;20.60
2543;DHT22;1116;51.502;7.414;2023-08-31T09:43:02;18.80;19.80
2543;DHT22;1116;51.502;7.414;2023-08-31T09:45:34;18.90;20.10
2543;DHT22;1116;51.502;7.414;2023-08-31T09:48:07;18.80;18.00
2543;DHT22;1116;51.502;7.414;2023-08-31T09:50:44;18.70;16.60
2543;DHT22;1116;51.502;7.414;2023-08-31T09:53:20;18.70;17.70
2543;DHT22;1116;51.502;7.414;2023-08-31T09:55:54;18.80;23.40
2543;DHT22;1116;51.502;7.414;2023-08-31T09:58:29;18.90;17.20
2543;DHT22;1116;51.502;7.414;2023-08-31T10:00:59;19.10;16.40
2543;DHT22;1116;51.502;7.414;2023-08-31T10:03:39;19.00;16.60
2543;DHT22;1116;51.502;7.414;2023-08-31T10:06:09;18.90;17.80
2543;DHT22;1116;51.502;7.414;2023-08-31T10:08:40;18.90;17.20
2543;DHT22;1116;51.502;7.414;2023-08-31T10:11:11;19.00;15.70
2543;DHT22;1116;51.502;7.414;2023-08-31T10:13:47;19.10;11.20
2543;DHT22;1116;51.502;7.414;2023-08-31T10:16:18;19.60;13.70
2543;DHT22;1116;51.502;7.414;2023-08-31T10:18:49;19.20;13.90
2543;DHT22;1116;51.502;7.414;2023-08-31T10:21:19;19.10;12.00
2543;DHT22;1116;51.502;7.414;2023-08-31T10:23:50;19.30;13.70
2543;DHT22;1116;51.502;7.414;2023-08-31T10:26:23;19.40;14.60
2543;DHT22;1116;51.502;7.414;2023-08-31T10:28:57;19.50;12.10
2543;DHT22;1116;51.502;7.414;2023-08-31T10:31:33;19.60;8.40
2543;DHT22;1116;51.502;7.414;2023-08-31T10:34:05;19.60;8.50
2543;DHT22;1116;51.502;7.414;2023-08-31T10:36:39;19.80;9.70
2543;DHT22;1116;51.502;7.414;2023-08-31T10:39:13;20.00;8.00
2543;DHT22;1116;51.502;7.414;2023-08-31T10:41:52;20.10;9.40
2543;DHT22;1116;51.502;7.414;2023-08-31T10:44:26;20.20;7.50
2543;DHT22;1116;51.502;7.414;2023-08-31T10:46:59;20.10;8.30
2543;DHT22;1116;51.502;7.414;2023-08-31T10:49:30;20.10;5.60
2543;DHT22;1116;51.502;7.414;2023-08-31T10:52:16;20.10;6.20
2543;DHT22;1116;51.502;7.414;2023-08-31T10:54:55;20.30;5.40
2543;DHT22;1116;51.502;7.414;2023-08-31T10:57:29;20.50;2.40
2543;DHT22;1116;51.502;7.414;2023-08-31T11:00:03;20.40;3.30
2543;DHT22;1116;51.502;7.414;2023-08-31T11:02:37;20.50;4.60
2543;DHT22;1116;51.502;7.414;2023-08-31T11:05:09;20.60;5.50
2543;DHT22;1116;51.502;7.414;2023-08-31T11:07:40;20.50;5.90
2543;DHT22;1116;51.502;7.414;2023-08-31T11:10:14;20.30;3.30
2543;DHT22;1116;51.502;7.414;2023-08-31T11:12:45;20.30;3.80
2543;DHT22;1116;51.502;7.414;2023-08-31T11:15:19;20.50;5.70
2543;DHT22;1116;51.502;7.414;2023-08-31T11:17:50;20.70;1.30
2543;DHT22;1116;51.502;7.414;2023-08-31T11:20:21;20.80;2.20
2543;DHT22;1116;51.502;7.414;2023-08-31T11:22:55;20.80;2.00
2543;DHT22;1116;51.502;7.414;2023-08-31T11:25:26;20.90;1.90
2543;DHT22;1116;51.502;7.414;2023-08-31T11:27:58;20.70;3.50
2543;DHT22;1116;51.502;7.414;2023-08-31T11:30:36;20.70;3.30
2543;DHT22;1116;51.502;7.414;2023-08-31T11:33:08;20.70;2.80
2543;DHT22;1116;51.502;7.414;2023-08-31T11:35:40;20.90;2.40
2543;DHT22;1116;51.502;7.414;2023-08-31T11:38:12;21.20;2.80
2543;DHT22;1116;51.502;7.414;2023-08-31T11:40:42;21.40;3.10
2543;DHT22;1116;51.502;7.414;2023-08-31T11:43:15;21.30;1.00
2543;DHT22;1116;51.502;7.414;2023-08-31T11:45:49;21.30;2.20
2543;DHT22;1116;51.502;7.414;2023-08-31T11:48:20;21.40;1.00
2543;DHT22;1116;51.502;7.414;2023-08-31T11:50:50;21.50;1.00
2543;DHT22;1116;51.502;7.414;2023-08-31T11:53:20;21.30;1.00
2543;DHT22;1116;51.502;7.414;2023-08-31T11:55:51;21.20;1.00
2543;DHT22;1116;51.502;7.414;2023-08-31T11:58:21;21.10;1.00
2543;DHT22;1116;51.502;7.414;2023-08-31T12:01:00;20.90;1.80
2543;DHT22;1116;51.502;7.414;2023-08-31T12:03:42;20.80;3.60
2543;DHT22;1116;51.502;7.414;2023-08-31T12:06:17;20.90;1.00
2543;DHT22;1116;51.502;7.414;2023-08-31T12:08:47;20.90;1.00
2543;DHT22;1116;51.502;7.414;2023-08-31T12:11:19;20.90;1.00
2543;DHT22;1116;51.502;7.414;2023-08-31T12:13:50;21.00;1.00
2543;DHT22;1116;51.502;7.414;2023-08-31T12:16:22;21.00;1.00
2543;DHT22;1116;51.502;7.414;2023-08-31T12:18:58;21.50;1.00
2543;DHT22;1116;51.502;7.414;2023-08-31T12:21:28;21.30;1.00
2543;DHT22;1116;51.502;7.414;2023-08-31T12:23:58;21.20;1.00
2543;DHT22;1116;51.502;7.414;2023-08-31T12:26:30;21.30;1.00
2543;DHT22;1116;51.502;7.414;2023-08-31T12:29:01;21.20;1.00
2543;DHT22;1116;51.502;7.414;2023-08-31T12:31:34;21.30;1.00
2543;DHT22;1116;51.502;7.414;2023-08-31T12:34:04;21.60;1.00
2543;DHT22;1116;51.502;7.414;2023-08-31T12:36:34;21.20;1.00
2543;DHT22;1116;51.502;7.414;2023-08-31T12:39:05;21.10;1.00
2543;DHT22;1116;51.502;7.414;2023-08-31T12:41:36;21.10;1.00
2543;DHT22;1116;51.502;7.414;2023-08-31T12:44:07;21.10;1.00
2543;DHT22;1116;51.502;7.414;2023-08-31T12:46:39;21.00;1.00
2543;DHT22;1116;51.502;7.414;2023-08-31T12:49:09;20.90;1.00
2543;DHT22;1116;51.502;7.414;2023-08-31T12:51:39;21.00;1.00
2543;DHT22;1116;51.502;7.414;2023-08-31T12:54:09;21.20;2.10
2543;DHT22;1116;51.502;7.414;2023-08-31T12:56:40;21.20;1.00
2543;DHT22;1116;51.502;7.414;2023-08-31T12:59:10;21.00;1.00
2543;DHT22;1116;51.502;7.414;2023-08-31T13:01:43;21.00;1.00
2543;DHT22;1116;51.502;7.414;2023-08-31T13:04:13;21.10;1.00
2543;DHT22;1116;51.502;7.414;2023-08-31T13:06:42;21.10;1.00
2543;DHT22;1116;51.502;7.414;2023-08-31T13:09:12;21.20;1.00
2543;DHT22;1116;51.502;7.414;2023-08-31T13:11:45;21.20;1.00
2543;DHT22;1116;51.502;7.414;2023-08-31T13:14:16;21.00;1.00
2543;DHT22;1116;51.502;7.414;2023-08-31T13:16:57;21.00;1.00
2543;DHT22;1116;51.502;7.414;2023-08-31T13:19:57;20.90;1.00
2543;DHT22;1116;51.502;7.414;2023-08-31T13:22:28;20.90;1.00
2543;DHT22;1116;51.502;7.414;2023-08-31T13:24:58;20.90;1.00
2543;DHT22;1116;51.502;7.414;2023-08-31T13:27:28;20.80;1.00
2543;DHT22;1116;51.502;7.414;2023-08-31T13:30:00;20.80;1.00
2543;DHT22;1116;51.502;7.414;2023-08-31T13:32:35;20.80;1.00
2543;DHT22;1116;51.502;7.414;2023-08-31T13:35:08;20.90;1.50
2543;DHT22;1116;51.502;7.414;2023-08-31T13:37:39;21.00;1.60
2543;DHT22;1116;51.502;7.414;2023-08-31T13:40:09;21.20;2.40
2543;DHT22;1116;51.502;7.414;2023-08-31T13:42:52;21.30;4.00
2543;DHT22;1116;51.502;7.414;2023-08-31T13:45:23;21.40;1.00
2543;DHT22;1116;51.502;7.414;2023-08-31T13:47:56;21.40;1.00
2543;DHT22;1116;51.502;7.414;2023-08-31T13:50:27;21.40;1.00
2543;DHT22;1116;51.502;7.414;2023-08-31T13:52:57;21.30;1.00
2543;DHT22;1116;51.502;7.414;2023-08-31T13:55:27;21.40;1.00
2543;DHT22;1116;51.502;7.414;2023-08-31T13:58:04;21.40;1.00
2543;DHT22;1116;51.502;7.414;2023-08-31T14:00:35;21.40;1.00
2543;DHT22;1116;51.502;7.414;2023-08-31T14:03:08;21.30;1.00
2543;DHT22;1116;51.502;7.414;2023-08-31T14:05:38;21.30;1.00
2543;DHT22;1116;51.502;7.414;2023-08-31T14:08:08;21.10;1.00
2543;DHT22;1116;51.502;7.414;2023-08-31T14:10:39;21.10;1.00
2543;DHT22;1116;51.502;7.414;2023-08-31T14:13:09;21.20;1.00
2543;DHT22;1116;51.502;7.414;2023-08-31T14:15:44;21.30;1.00
2543;DHT22;1116;51.502;7.414;2023-08-31T14:18:17;21.30;1.00
2543;DHT22;1116;51.502;7.414;2023-08-31T14:20:48;21.40;1.00
2543;DHT22;1116;51.502;7.414;2023-08-31T14:23:18;21.50;1.00
2543;DHT22;1116;51.502;7.414;2023-08-31T14:25:47;21.60;1.00
2543;DHT22;1116;51.502;7.414;2023-08-31T14:28:17;21.70;1.00
2543;DHT22;1116;51.502;7.414;2023-08-31T14:30:47;21.80;1.00
2543;DHT22;1116;51.502;7.414;2023-08-31T14:33:20;21.60;1.00
2543;DHT22;1116;51.502;7.414;2023-08-31T14:35:50;21.60;1.00
2543;DHT22;1116;51.502;7.414;2023-08-31T14:38:23;21.40;1.00
2543;DHT22;1116;51.502;7.414;2023-08-31T14:40:54;21.30;1.00
2543;DHT22;1116;51.502;7.414;2023-08-31T14:43:25;21.20;1.00
2543;DHT22;1116;51.502;7.414;2023-08-31T14:45:54;21.00;1.00
2543;DHT22;1116;51.502;7.414;2023-08-31T14:48:27;20.80;1.00
2543;DHT22;1116;51.502;7.414;2023-08-31T14:50:57;20.70;2.00
2543;DHT22;1116;51.502;7.414;2023-08-31T14:53:28;20.60;3.00
2543;DHT22;1116;51.502;7.414;2023-08-31T14:55:58;20.30;6.40
2543;DHT22;1116;51.502;7.414;2023-08-31T14:58:28;19.70;12.10
2543;DHT22;1116;51.502;7.414;2023-08-31T15:00:58;19.20;17.80
2543;DHT22;1116;51.502;7.414;2023-08-31T15:03:30;18.50;25.20
2543;DHT22;1116;51.502;7.414;2023-08-31T15:06:00;18.10;29.50
2543;DHT22;1116;51.502;7.414;2023-08-31T15:08:38;17.80;36.10
2543;DHT22;1116;51.502;7.414;2023-08-31T15:11:08;17.70;40.50
2543;DHT22;1116;51.502;7.414;2023-08-31T15:13:41;17.40;47.40
2543;DHT22;1116;51.502;7.414;2023-08-31T15:16:11;17.20;58.70
2543;DHT22;1116;51.502;7.414;2023-08-31T15:18:44;17.10;59.40
2543;DHT22;1116;51.502;7.414;2023-08-31T15:21:14;17.10;57.30
2543;DHT22;1116;51.502;7.414;2023-08-31T15:23:45;17.10;61.70
2543;DHT22;1116;51.502;7.414;2023-08-31T15:26:15;17.10;60.80
2543;DHT22;1116;51.502;7.414;2023-08-31T15:28:46;17.00;56.30
2543;DHT22;1116;51.502;7.414;2023-08-31T15:31:15;17.00;53.70
2543;DHT22;1116;51.502;7.414;2023-08-31T15:33:48;17.10;57.00
2543;DHT22;1116;51.502;7.414;2023-08-31T15:36:18;17.10;55.40
2543;DHT22;1116;51.502;7.414;2023-08-31T15:38:48;17.10;57.10
2543;DHT22;1116;51.502;7.414;2023-08-31T15:41:20;17.10;53.40
2543;DHT22;1116;51.502;7.414;2023-08-31T15:43:50;17.10;52.50
2543;DHT22;1116;51.502;7.414;2023-08-31T15:46:20;17.10;54.10
2543;DHT22;1116;51.502;7.414;2023-08-31T15:48:52;17.20;63.80
2543;DHT22;1116;51.502;7.414;2023-08-31T15:51:22;17.20;60.10
2543;DHT22;1116;51.502;7.414;2023-08-31T15:53:52;17.20;63.90
2543;DHT22;1116;51.502;7.414;2023-08-31T15:56:25;17.10;60.00
2543;DHT22;1116;51.502;7.414;2023-08-31T15:58:54;17.60;62.20
2543;DHT22;1116;51.502;7.414;2023-08-31T16:01:25;17.20;56.90
2543;DHT22;1116;51.502;7.414;2023-08-31T16:03:57;17.20;61.20
2543;DHT22;1116;51.502;7.414;2023-08-31T16:06:27;17.30;60.40
2543;DHT22;1116;51.502;7.414;2023-08-31T16:08:57;17.30;55.60
2543;DHT22;1116;51.502;7.414;2023-08-31T16:11:27;17.20;58.60
2543;DHT22;1116;51.502;7.414;2023-08-31T16:13:57;17.20;60.10
2543;DHT22;1116;51.502;7.414;2023-08-31T16:16:27;17.20;62.80
2543;DHT22;1116;51.502;7.414;2023-08-31T16:18:59;17.20;65.50
2543;DHT22;1116;51.502;7.414;2023-08-31T16:21:30;17.20;63.70
2543;DHT22;1116;51.502;7.414;2023-08-31T16:24:00;17.20;60.00
2543;DHT22;1116;51.502;7.414;2023-08-31T16:26:30;17.20;67.30
2543;DHT22;1116;51.502;7.414;2023-08-31T16:28:59;17.20;69.90
2543;DHT22;1116;51.502;7.414;2023-08-31T16:31:31;17.10;62.60
2543;DHT22;1116;51.502;7.414;2023-08-31T16:34:04;17.40;63.50
2543;DHT22;1116;51.502;7.414;2023-08-31T16:36:34;17.10;64.70